Arlington, Wyoming
Current Conditions -  °F | °C
As of 1:55 PM on Saturday 22 Nov 2014 (Local Time) from KEHY Reporting Station
Light Snow Light Snow  
Wind Chill: 22°   Ceiling: 2100
Heat Index: 34°   Visibility: 1.2mi
Dew Point: 30°   Wind: 23mph
Humidity: 87%   Direction: 230°SW
Pressure: 29.7"   Gusts: 43mph
Location:  41.6691°N, 106.011°W
Report Text: KEHY 222055Z AUTO 23020G37KT 1 1/4SM -SN SCT012 BKN021 OVC110 01/M01 A2970 RMK AO2
Loading
Personal Weather Stations






























Interactive Weather Map New forecast layout! Learn more

10-Day Weather Forecast

Advertisements
Track Severe Weather on mobile